Holton, Michigan
Current Conditions -  °F | °C
As of 2:55 PM on Monday 24 Nov 2014 (Local Time) from KFFX Reporting Station
Moderate Rain Moderate Rain  
Wind Chill: 31°   Ceiling: 1400
Heat Index: 41°   Visibility: 10mi
Dew Point: 39°   Wind: 20mph
Humidity: 93%   Direction: 240°WSW
Pressure: 29.18"   Gusts: 32mph
Location:  43.41°N, 86.08°W
Report Text: KFFX 241955Z AUTO 24017G28KT 10SM RA SCT009 OVC014 05/04 A2918 RMK AO2 T00480038
Loading
Personal Weather Stations






























Interactive Weather Map New forecast layout! Learn more

10-Day Weather Forecast

Advertisements
Track Severe Weather on mobile